sensor_id;sensor_type;location;lat;lon;timestamp;pressure;altitude;pressure_sealevel;temperature
76381;BMP280;65202;52.520;10.528;2023-05-23T00:02:23;100645.09;;;19.61
76381;BMP280;65202;52.520;10.528;2023-05-23T00:04:50;100648.28;;;19.32
76381;BMP280;65202;52.520;10.528;2023-05-23T00:07:18;100638.91;;;19.27
76381;BMP280;65202;52.520;10.528;2023-05-23T00:09:45;100619.13;;;18.92
76381;BMP280;65202;52.520;10.528;2023-05-23T00:12:13;100628.69;;;19.15
76381;BMP280;65202;52.520;10.528;2023-05-23T00:14:40;100637.19;;;19.21
76381;BMP280;65202;52.520;10.528;2023-05-23T00:17:07;100630.25;;;19.04
76381;BMP280;65202;52.520;10.528;2023-05-23T00:19:36;100629.69;;;18.47
76381;BMP280;65202;52.520;10.528;2023-05-23T00:22:04;100628.63;;;19.09
76381;BMP280;65202;52.520;10.528;2023-05-23T00:24:31;100644.31;;;18.71
76381;BMP280;65202;52.520;10.528;2023-05-23T00:26:58;100643.91;;;19.12
76381;BMP280;65202;52.520;10.528;2023-05-23T00:29:25;100659.56;;;18.74
76381;BMP280;65202;52.520;10.528;2023-05-23T00:31:53;100671.25;;;18.61
76381;BMP280;65202;52.520;10.528;2023-05-23T00:34:20;100676.44;;;18.72
76381;BMP280;65202;52.520;10.528;2023-05-23T00:36:47;100675.50;;;18.62
76381;BMP280;65202;52.520;10.528;2023-05-23T00:39:16;100686.19;;;18.34
76381;BMP280;65202;52.520;10.528;2023-05-23T00:41:50;100690.16;;;18.18
76381;BMP280;65202;52.520;10.528;2023-05-23T00:44:19;100681.53;;;18.07
76381;BMP280;65202;52.520;10.528;2023-05-23T00:46:51;100676.03;;;18.34
76381;BMP280;65202;52.520;10.528;2023-05-23T00:49:21;100687.75;;;18.27
76381;BMP280;65202;52.520;10.528;2023-05-23T00:51:50;100689.44;;;18.26
76381;BMP280;65202;52.520;10.528;2023-05-23T00:54:25;100684.63;;;18.47
76381;BMP280;65202;52.520;10.528;2023-05-23T00:56:55;100698.91;;;18.40
76381;BMP280;65202;52.520;10.528;2023-05-23T00:59:24;100695.28;;;18.21
76381;BMP280;65202;52.520;10.528;2023-05-23T01:01:54;100699.03;;;17.89
76381;BMP280;65202;52.520;10.528;2023-05-23T01:04:23;100688.56;;;18.24
76381;BMP280;65202;52.520;10.528;2023-05-23T01:06:53;100690.25;;;18.24
76381;BMP280;65202;52.520;10.528;2023-05-23T01:09:22;100684.94;;;18.09
76381;BMP280;65202;52.520;10.528;2023-05-23T01:12:16;100689.34;;;18.19
76381;BMP280;65202;52.520;10.528;2023-05-23T01:15:07;100685.88;;;18.17
76381;BMP280;65202;52.520;10.528;2023-05-23T01:20:29;100688.50;;;18.20
76381;BMP280;65202;52.520;10.528;2023-05-23T01:26:02;100685.38;;;18.40
76381;BMP280;65202;52.520;10.528;2023-05-23T01:28:45;100686.81;;;18.20
76381;BMP280;65202;52.520;10.528;2023-05-23T01:31:16;100686.97;;;18.31
76381;BMP280;65202;52.520;10.528;2023-05-23T01:33:45;100678.78;;;18.52
76381;BMP280;65202;52.520;10.528;2023-05-23T01:36:15;100685.28;;;18.30
76381;BMP280;65202;52.520;10.528;2023-05-23T01:38:43;100679.31;;;18.26
76381;BMP280;65202;52.520;10.528;2023-05-23T01:41:10;100681.41;;;18.63
76381;BMP280;65202;52.520;10.528;2023-05-23T01:43:37;100676.22;;;18.52
76381;BMP280;65202;52.520;10.528;2023-05-23T01:46:06;100683.84;;;18.52
76381;BMP280;65202;52.520;10.528;2023-05-23T01:48:35;100677.59;;;18.25
76381;BMP280;65202;52.520;10.528;2023-05-23T01:51:04;100676.84;;;18.31
76381;BMP280;65202;52.520;10.528;2023-05-23T01:53:33;100675.16;;;18.33
76381;BMP280;65202;52.520;10.528;2023-05-23T01:56:02;100675.41;;;17.88
76381;BMP280;65202;52.520;10.528;2023-05-23T01:58:29;100672.88;;;18.52
76381;BMP280;65202;52.520;10.528;2023-05-23T02:00:57;100675.16;;;18.33
76381;BMP280;65202;52.520;10.528;2023-05-23T02:03:24;100674.59;;;18.57
76381;BMP280;65202;52.520;10.528;2023-05-23T02:05:52;100668.31;;;18.26
76381;BMP280;65202;52.520;10.528;2023-05-23T02:08:19;100672.28;;;18.07
76381;BMP280;65202;52.520;10.528;2023-05-23T02:10:46;100678.16;;;18.05
76381;BMP280;65202;52.520;10.528;2023-05-23T02:13:13;100676.97;;;18.42
76381;BMP280;65202;52.520;10.528;2023-05-23T02:15:40;100680.56;;;17.94
76381;BMP280;65202;52.520;10.528;2023-05-23T02:18:08;100677.16;;;17.94
76381;BMP280;65202;52.520;10.528;2023-05-23T02:20:35;100677.56;;;18.22
76381;BMP280;65202;52.520;10.528;2023-05-23T02:23:03;100682.13;;;17.88
76381;BMP280;65202;52.520;10.528;2023-05-23T02:25:30;100694.03;;;17.93
76381;BMP280;65202;52.520;10.528;2023-05-23T02:27:57;100685.63;;;17.96
76381;BMP280;65202;52.520;10.528;2023-05-23T02:30:24;100684.38;;;18.28
76381;BMP280;65202;52.520;10.528;2023-05-23T02:32:51;100686.59;;;18.07
76381;BMP280;65202;52.520;10.528;2023-05-23T02:35:19;100693.34;;;18.05
76381;BMP280;65202;52.520;10.528;2023-05-23T02:37:46;100691.34;;;17.83
76381;BMP280;65202;52.520;10.528;2023-05-23T02:40:14;100688.34;;;17.52
76381;BMP280;65202;52.520;10.528;2023-05-23T02:42:41;100685.19;;;17.14
76381;BMP280;65202;52.520;10.528;2023-05-23T02:45:09;100682.78;;;17.75
76381;BMP280;65202;52.520;10.528;2023-05-23T02:47:36;100684.38;;;17.67
76381;BMP280;65202;52.520;10.528;2023-05-23T02:50:04;100692.31;;;17.36
76381;BMP280;65202;52.520;10.528;2023-05-23T02:52:32;100691.44;;;17.90
76381;BMP280;65202;52.520;10.528;2023-05-23T02:54:59;100699.81;;;17.30
76381;BMP280;65202;52.520;10.528;2023-05-23T02:57:26;100691.63;;;16.98
76381;BMP280;65202;52.520;10.528;2023-05-23T02:59:53;100702.31;;;17.29
76381;BMP280;65202;52.520;10.528;2023-05-23T03:02:21;100699.38;;;17.57
76381;BMP280;65202;52.520;10.528;2023-05-23T03:04:49;100711.28;;;16.68
76381;BMP280;65202;52.520;10.528;2023-05-23T03:07:16;100705.09;;;16.52
76381;BMP280;65202;52.520;10.528;2023-05-23T03:09:53;100700.72;;;16.87
76381;BMP280;65202;52.520;10.528;2023-05-23T03:12:21;100707.97;;;17.16
76381;BMP280;65202;52.520;10.528;2023-05-23T03:14:48;100724.19;;;16.40
76381;BMP280;65202;52.520;10.528;2023-05-23T03:17:15;100720.00;;;16.02
76381;BMP280;65202;52.520;10.528;2023-05-23T03:19:43;100723.31;;;16.01
76381;BMP280;65202;52.520;10.528;2023-05-23T03:22:10;100717.78;;;16.16
76381;BMP280;65202;52.520;10.528;2023-05-23T03:24:37;100724.97;;;15.99
76381;BMP280;65202;52.520;10.528;2023-05-23T03:27:05;100716.09;;;15.79
76381;BMP280;65202;52.520;10.528;2023-05-23T03:29:32;100727.59;;;16.04
76381;BMP280;65202;52.520;10.528;2023-05-23T03:31:59;100729.06;;;15.94
76381;BMP280;65202;52.520;10.528;2023-05-23T03:34:27;100731.22;;;15.78
76381;BMP280;65202;52.520;10.528;2023-05-23T03:36:54;100735.28;;;16.08
76381;BMP280;65202;52.520;10.528;2023-05-23T03:39:22;100736.16;;;16.10
76381;BMP280;65202;52.520;10.528;2023-05-23T03:41:49;100734.22;;;15.64
76381;BMP280;65202;52.520;10.528;2023-05-23T03:44:17;100745.09;;;15.96
76381;BMP280;65202;52.520;10.528;2023-05-23T03:46:44;100745.38;;;15.72
76381;BMP280;65202;52.520;10.528;2023-05-23T03:49:11;100744.03;;;15.50
76381;BMP280;65202;52.520;10.528;2023-05-23T03:51:39;100751.75;;;15.58
76381;BMP280;65202;52.520;10.528;2023-05-23T03:54:06;100743.56;;;15.68
76381;BMP280;65202;52.520;10.528;2023-05-23T03:56:33;100738.63;;;15.37
76381;BMP280;65202;52.520;10.528;2023-05-23T03:59:01;100741.41;;;15.82
76381;BMP280;65202;52.520;10.528;2023-05-23T04:01:28;100748.59;;;15.66
76381;BMP280;65202;52.520;10.528;2023-05-23T04:03:55;100751.03;;;15.62
76381;BMP280;65202;52.520;10.528;2023-05-23T04:06:23;100751.66;;;15.88
76381;BMP280;65202;52.520;10.528;2023-05-23T04:08:50;100751.31;;;15.74
76381;BMP280;65202;52.520;10.528;2023-05-23T04:11:17;100754.50;;;16.02
76381;BMP280;65202;52.520;10.528;2023-05-23T04:13:45;100749.47;;;15.67
76381;BMP280;65202;52.520;10.528;2023-05-23T04:16:13;100753.91;;;15.77
76381;BMP280;65202;52.520;10.528;2023-05-23T04:18:40;100754.56;;;16.05
76381;BMP280;65202;52.520;10.528;2023-05-23T04:21:09;100755.38;;;15.69
76381;BMP280;65202;52.520;10.528;2023-05-23T04:23:36;100753.97;;;16.16
76381;BMP280;65202;52.520;10.528;2023-05-23T04:26:04;100766.41;;;16.44
76381;BMP280;65202;52.520;10.528;2023-05-23T04:28:33;100768.09;;;15.72
76381;BMP280;65202;52.520;10.528;2023-05-23T04:31:00;100759.66;;;16.43
76381;BMP280;65202;52.520;10.528;2023-05-23T04:33:29;100769.03;;;16.48
76381;BMP280;65202;52.520;10.528;2023-05-23T04:35:56;100754.91;;;16.21
76381;BMP280;65202;52.520;10.528;2023-05-23T04:38:23;100759.16;;;16.22
76381;BMP280;65202;52.520;10.528;2023-05-23T04:40:53;100765.66;;;16.48
76381;BMP280;65202;52.520;10.528;2023-05-23T04:43:20;100760.31;;;16.35
76381;BMP280;65202;52.520;10.528;2023-05-23T04:45:48;100767.50;;;16.56
76381;BMP280;65202;52.520;10.528;2023-05-23T04:48:20;100771.44;;;16.44
76381;BMP280;65202;52.520;10.528;2023-05-23T04:50:49;100766.44;;;16.45
76381;BMP280;65202;52.520;10.528;2023-05-23T04:53:18;100766.13;;;16.31
76381;BMP280;65202;52.520;10.528;2023-05-23T04:55:45;100771.22;;;16.34
76381;BMP280;65202;52.520;10.528;2023-05-23T04:58:13;100768.81;;;16.38
76381;BMP280;65202;52.520;10.528;2023-05-23T05:00:40;100766.59;;;16.16
76381;BMP280;65202;52.520;10.528;2023-05-23T05:03:08;100766.72;;;16.59
76381;BMP280;65202;52.520;10.528;2023-05-23T05:05:38;100771.56;;;16.48
76381;BMP280;65202;52.520;10.528;2023-05-23T05:08:05;100767.59;;;16.59
76381;BMP280;65202;52.520;10.528;2023-05-23T05:10:32;100773.28;;;16.51
76381;BMP280;65202;52.520;10.528;2023-05-23T05:12:59;100773.66;;;16.69
76381;BMP280;65202;52.520;10.528;2023-05-23T05:15:26;100772.81;;;16.68
76381;BMP280;65202;52.520;10.528;2023-05-23T05:17:54;100773.81;;;16.76
76381;BMP280;65202;52.520;10.528;2023-05-23T05:20:22;100763.88;;;16.85
76381;BMP280;65202;52.520;10.528;2023-05-23T05:22:55;100772.38;;;16.89
76381;BMP280;65202;52.520;10.528;2023-05-23T05:25:24;100768.25;;;16.94
76381;BMP280;65202;52.520;10.528;2023-05-23T05:27:53;100775.66;;;16.83
76381;BMP280;65202;52.520;10.528;2023-05-23T05:30:20;100777.25;;;16.80
76381;BMP280;65202;52.520;10.528;2023-05-23T05:32:47;100765.69;;;16.91
76381;BMP280;65202;52.520;10.528;2023-05-23T05:35:15;100770.81;;;16.97
76381;BMP280;65202;52.520;10.528;2023-05-23T05:37:42;100770.78;;;16.94
76381;BMP280;65202;52.520;10.528;2023-05-23T05:40:11;100770.63;;;16.85
76381;BMP280;65202;52.520;10.528;2023-05-23T05:42:38;100767.78;;;17.12
76381;BMP280;65202;52.520;10.528;2023-05-23T05:45:06;100774.56;;;16.71
76381;BMP280;65202;52.520;10.528;2023-05-23T05:47:33;100770.47;;;16.77
76381;BMP280;65202;52.520;10.528;2023-05-23T05:50:00;100770.56;;;16.82
76381;BMP280;65202;52.520;10.528;2023-05-23T05:52:27;100777.56;;;16.53
76381;BMP280;65202;52.520;10.528;2023-05-23T05:54:55;100763.44;;;17.05
76381;BMP280;65202;52.520;10.528;2023-05-23T05:57:23;100777.31;;;16.83
76381;BMP280;65202;52.520;10.528;2023-05-23T05:59:50;100769.50;;;16.71
76381;BMP280;65202;52.520;10.528;2023-05-23T06:02:18;100776.28;;;16.73
76381;BMP280;65202;52.520;10.528;2023-05-23T06:04:45;100767.09;;;16.37
76381;BMP280;65202;52.520;10.528;2023-05-23T06:07:13;100768.69;;;16.34
76381;BMP280;65202;52.520;10.528;2023-05-23T06:09:40;100775.38;;;16.70
76381;BMP280;65202;52.520;10.528;2023-05-23T06:12:07;100775.59;;;16.41
76381;BMP280;65202;52.520;10.528;2023-05-23T06:14:35;100774.75;;;16.41
76381;BMP280;65202;52.520;10.528;2023-05-23T06:17:02;100769.25;;;16.22
76381;BMP280;65202;52.520;10.528;2023-05-23T06:19:29;100769.94;;;16.15
76381;BMP280;65202;52.520;10.528;2023-05-23T06:21:57;100777.00;;;16.28
76381;BMP280;65202;52.520;10.528;2023-05-23T06:24:24;100778.66;;;16.28
76381;BMP280;65202;52.520;10.528;2023-05-23T06:26:51;100773.13;;;16.07
76381;BMP280;65202;52.520;10.528;2023-05-23T06:29:18;100775.06;;;16.55
76381;BMP280;65202;52.520;10.528;2023-05-23T06:31:46;100783.19;;;16.41
76381;BMP280;65202;52.520;10.528;2023-05-23T06:34:13;100780.09;;;16.17
76381;BMP280;65202;52.520;10.528;2023-05-23T06:36:42;100781.94;;;16.25
76381;BMP280;65202;52.520;10.528;2023-05-23T06:39:09;100782.59;;;16.52
76381;BMP280;65202;52.520;10.528;2023-05-23T06:41:38;100779.94;;;16.46
76381;BMP280;65202;52.520;10.528;2023-05-23T06:44:05;100779.53;;;16.28
76381;BMP280;65202;52.520;10.528;2023-05-23T06:46:32;100780.09;;;16.17
76381;BMP280;65202;52.520;10.528;2023-05-23T06:48:59;100777.47;;;15.77
76381;BMP280;65202;52.520;10.528;2023-05-23T06:51:40;100779.88;;;16.43
76381;BMP280;65202;52.520;10.528;2023-05-23T06:54:08;100778.91;;;16.37
76381;BMP280;65202;52.520;10.528;2023-05-23T06:56:36;100781.91;;;16.22
76381;BMP280;65202;52.520;10.528;2023-05-23T06:59:03;100782.78;;;16.24
76381;BMP280;65202;52.520;10.528;2023-05-23T07:01:31;100780.88;;;16.51
76381;BMP280;65202;52.520;10.528;2023-05-23T07:03:58;100779.75;;;16.78
76381;BMP280;65202;52.520;10.528;2023-05-23T07:06:25;100789.47;;;16.22
76381;BMP280;65202;52.520;10.528;2023-05-23T07:08:56;100787.53;;;16.11
76381;BMP280;65202;52.520;10.528;2023-05-23T07:11:23;100785.34;;;16.26
76381;BMP280;65202;52.520;10.528;2023-05-23T07:13:50;100788.41;;;16.48
76381;BMP280;65202;52.520;10.528;2023-05-23T07:16:17;100781.53;;;16.42
76381;BMP280;65202;52.520;10.528;2023-05-23T07:18:44;100784.84;;;16.40
76381;BMP280;65202;52.520;10.528;2023-05-23T07:21:12;100782.25;;;16.36
76381;BMP280;65202;52.520;10.528;2023-05-23T07:23:39;100789.97;;;16.43
76381;BMP280;65202;52.520;10.528;2023-05-23T07:26:06;100783.50;;;16.55
76381;BMP280;65202;52.520;10.528;2023-05-23T07:28:35;100789.34;;;16.53
76381;BMP280;65202;52.520;10.528;2023-05-23T07:31:03;100779.19;;;16.51
76381;BMP280;65202;52.520;10.528;2023-05-23T07:33:30;100778.78;;;16.72
76381;BMP280;65202;52.520;10.528;2023-05-23T07:36:00;100775.34;;;16.68
76381;BMP280;65202;52.520;10.528;2023-05-23T07:38:27;100773.84;;;16.78
76381;BMP280;65202;52.520;10.528;2023-05-23T07:40:55;100778.25;;;16.46
76381;BMP280;65202;52.520;10.528;2023-05-23T07:43:37;100783.94;;;16.01
76381;BMP280;65202;52.520;10.528;2023-05-23T07:46:05;100789.47;;;16.59
76381;BMP280;65202;52.520;10.528;2023-05-23T07:48:32;100789.78;;;16.34
76381;BMP280;65202;52.520;10.528;2023-05-23T07:50:59;100782.56;;;16.15
76381;BMP280;65202;52.520;10.528;2023-05-23T07:53:27;100788.06;;;16.33
76381;BMP280;65202;52.520;10.528;2023-05-23T07:55:54;100787.41;;;16.41
76381;BMP280;65202;52.520;10.528;2023-05-23T07:58:22;100786.56;;;16.06
76381;BMP280;65202;52.520;10.528;2023-05-23T08:00:49;100790.22;;;16.55
76381;BMP280;65202;52.520;10.528;2023-05-23T08:03:18;100791.00;;;16.14
76381;BMP280;65202;52.520;10.528;2023-05-23T08:05:46;100800.19;;;16.12
76381;BMP280;65202;52.520;10.528;2023-05-23T08:08:13;100797.81;;;16.18
76381;BMP280;65202;52.520;10.528;2023-05-23T08:10:41;100793.69;;;16.22
76381;BMP280;65202;52.520;10.528;2023-05-23T08:13:08;100798.47;;;16.11
76381;BMP280;65202;52.520;10.528;2023-05-23T08:15:36;100794.09;;;16.38
76381;BMP280;65202;52.520;10.528;2023-05-23T08:18:03;100801.13;;;15.80
76381;BMP280;65202;52.520;10.528;2023-05-23T08:20:31;100803.06;;;15.90
76381;BMP280;65202;52.520;10.528;2023-05-23T08:22:59;100807.72;;;15.74
76381;BMP280;65202;52.520;10.528;2023-05-23T08:25:28;100808.69;;;15.80
76381;BMP280;65202;52.520;10.528;2023-05-23T08:27:59;100814.66;;;15.50
76381;BMP280;65202;52.520;10.528;2023-05-23T08:30:27;100810.47;;;15.84
76381;BMP280;65202;52.520;10.528;2023-05-23T08:32:55;100819.84;;;15.90
76381;BMP280;65202;52.520;10.528;2023-05-23T08:35:23;100822.28;;;15.52
76381;BMP280;65202;52.520;10.528;2023-05-23T08:37:51;100819.41;;;15.72
76381;BMP280;65202;52.520;10.528;2023-05-23T08:40:20;100815.78;;;15.61
76381;BMP280;65202;52.520;10.528;2023-05-23T08:42:49;100827.19;;;15.47
76381;BMP280;65202;52.520;10.528;2023-05-23T08:45:17;100829.22;;;15.28
76381;BMP280;65202;52.520;10.528;2023-05-23T08:47:45;100834.84;;;15.50
76381;BMP280;65202;52.520;10.528;2023-05-23T08:50:15;100838.34;;;15.24
76381;BMP280;65202;52.520;10.528;2023-05-23T08:52:53;100843.69;;;15.35
76381;BMP280;65202;52.520;10.528;2023-05-23T08:55:27;100850.22;;;15.28
76381;BMP280;65202;52.520;10.528;2023-05-23T08:57:57;100842.47;;;15.21
76381;BMP280;65202;52.520;10.528;2023-05-23T09:00:28;100851.53;;;15.45
76381;BMP280;65202;52.520;10.528;2023-05-23T09:02:56;100861.94;;;15.26
76381;BMP280;65202;52.520;10.528;2023-05-23T09:05:25;100863.28;;;15.45
76381;BMP280;65202;52.520;10.528;2023-05-23T09:07:52;100865.00;;;15.46
76381;BMP280;65202;52.520;10.528;2023-05-23T09:10:20;100868.56;;;15.54
76381;BMP280;65202;52.520;10.528;2023-05-23T09:12:48;100869.47;;;15.25
76381;BMP280;65202;52.520;10.528;2023-05-23T09:15:15;100872.69;;;15.50
76381;BMP280;65202;52.520;10.528;2023-05-23T09:17:43;100865.44;;;15.02
76381;BMP280;65202;52.520;10.528;2023-05-23T09:20:13;100877.66;;;15.18
76381;BMP280;65202;52.520;10.528;2023-05-23T09:22:47;100883.50;;;15.46
76381;BMP280;65202;52.520;10.528;2023-05-23T09:25:15;100884.44;;;15.20
76381;BMP280;65202;52.520;10.528;2023-05-23T09:27:42;100886.28;;;14.97
76381;BMP280;65202;52.520;10.528;2023-05-23T09:30:14;100890.91;;;15.11
76381;BMP280;65202;52.520;10.528;2023-05-23T09:32:41;100897.19;;;14.96
76381;BMP280;65202;52.520;10.528;2023-05-23T09:35:10;100898.06;;;14.98
76381;BMP280;65202;52.520;10.528;2023-05-23T09:37:42;100901.38;;;14.95
76381;BMP280;65202;52.520;10.528;2023-05-23T09:40:14;100903.97;;;14.98
76381;BMP280;65202;52.520;10.528;2023-05-23T09:42:44;100909.13;;;15.03
76381;BMP280;65202;52.520;10.528;2023-05-23T09:45:14;100912.00;;;14.85
76381;BMP280;65202;52.520;10.528;2023-05-23T09:47:49;100912.00;;;14.85
76381;BMP280;65202;52.520;10.528;2023-05-23T09:50:18;100920.88;;;14.73
76381;BMP280;65202;52.520;10.528;2023-05-23T09:52:47;100919.19;;;15.01
76381;BMP280;65202;52.520;10.528;2023-05-23T09:55:14;100926.00;;;14.49
76381;BMP280;65202;52.520;10.528;2023-05-23T09:57:42;100925.84;;;14.71
76381;BMP280;65202;52.520;10.528;2023-05-23T10:00:10;100924.75;;;14.63
76381;BMP280;65202;52.520;10.528;2023-05-23T10:05:49;100943.25;;;14.38
76381;BMP280;65202;52.520;10.528;2023-05-23T10:08:26;100945.66;;;14.35
76381;BMP280;65202;52.520;10.528;2023-05-23T10:13:43;100945.84;;;14.39
76381;BMP280;65202;52.520;10.528;2023-05-23T10:16:37;100962.34;;;14.31
76381;BMP280;65202;52.520;10.528;2023-05-23T10:19:34;100957.66;;;14.42
76381;BMP280;65202;52.520;10.528;2023-05-23T10:22:11;100965.31;;;14.20
76381;BMP280;65202;52.520;10.528;2023-05-23T10:24:40;100966.88;;;14.16
76381;BMP280;65202;52.520;10.528;2023-05-23T10:27:08;100969.25;;;14.37
76381;BMP280;65202;52.520;10.528;2023-05-23T10:29:36;100976.81;;;14.12
76381;BMP280;65202;52.520;10.528;2023-05-23T10:32:06;100991.44;;;14.00
76381;BMP280;65202;52.520;10.528;2023-05-23T10:34:40;100992.22;;;13.97
76381;BMP280;65202;52.520;10.528;2023-05-23T10:37:56;100992.19;;;14.19
76381;BMP280;65202;52.520;10.528;2023-05-23T10:40:48;100998.13;;;13.98
76381;BMP280;65202;52.520;10.528;2023-05-23T10:43:31;100991.16;;;13.91
76381;BMP280;65202;52.520;10.528;2023-05-23T10:46:08;101001.34;;;13.94
76381;BMP280;65202;52.520;10.528;2023-05-23T10:48:41;101001.22;;;13.91
76381;BMP280;65202;52.520;10.528;2023-05-23T10:51:11;101007.88;;;13.89
76381;BMP280;65202;52.520;10.528;2023-05-23T10:53:42;101007.03;;;14.12
76381;BMP280;65202;52.520;10.528;2023-05-23T10:56:18;101014.44;;;13.85
76381;BMP280;65202;52.520;10.528;2023-05-23T10:58:53;101024.47;;;13.84
76381;BMP280;65202;52.520;10.528;2023-05-23T11:01:22;101026.06;;;13.82
76381;BMP280;65202;52.520;10.528;2023-05-23T11:03:51;101036.75;;;13.75
76381;BMP280;65202;52.520;10.528;2023-05-23T11:09:09;101042.09;;;13.62
76381;BMP280;65202;52.520;10.528;2023-05-23T11:17:15;101044.28;;;13.75
76381;BMP280;65202;52.520;10.528;2023-05-23T11:20:04;101062.38;;;13.88
76381;BMP280;65202;52.520;10.528;2023-05-23T11:22:34;101052.59;;;13.51
76381;BMP280;65202;52.520;10.528;2023-05-23T11:25:11;101057.00;;;13.34
76381;BMP280;65202;52.520;10.528;2023-05-23T11:27:40;101069.09;;;13.44
76381;BMP280;65202;52.520;10.528;2023-05-23T11:30:12;101062.03;;;13.80
76381;BMP280;65202;52.520;10.528;2023-05-23T11:32:47;101078.03;;;13.80
76381;BMP280;65202;52.520;10.528;2023-05-23T11:35:17;101075.97;;;13.93
76381;BMP280;65202;52.520;10.528;2023-05-23T11:37:44;101083.00;;;13.57
76381;BMP280;65202;52.520;10.528;2023-05-23T11:40:25;101087.16;;;13.78
76381;BMP280;65202;52.520;10.528;2023-05-23T11:42:53;101089.56;;;13.53
76381;BMP280;65202;52.520;10.528;2023-05-23T11:45:21;101082.78;;;13.29
76381;BMP280;65202;52.520;10.528;2023-05-23T11:47:49;101100.13;;;13.23
76381;BMP280;65202;52.520;10.528;2023-05-23T11:50:16;101095.25;;;13.27
76381;BMP280;65202;52.520;10.528;2023-05-23T11:52:46;101108.91;;;13.12
76381;BMP280;65202;52.520;10.528;2023-05-23T11:55:21;101103.94;;;13.14
76381;BMP280;65202;52.520;10.528;2023-05-23T11:57:49;101105.78;;;13.18
76381;BMP280;65202;52.520;10.528;2023-05-23T12:00:18;101113.09;;;13.12
76381;BMP280;65202;52.520;10.528;2023-05-23T12:02:45;101110.81;;;13.18
76381;BMP280;65202;52.520;10.528;2023-05-23T12:05:16;101121.16;;;13.05
76381;BMP280;65202;52.520;10.528;2023-05-23T12:07:45;101120.25;;;13.23
76381;BMP280;65202;52.520;10.528;2023-05-23T12:10:14;101133.81;;;13.26
76381;BMP280;65202;52.520;10.528;2023-05-23T12:12:43;101135.72;;;13.12
76381;BMP280;65202;52.520;10.528;2023-05-23T12:15:11;101139.47;;;13.43
76381;BMP280;65202;52.520;10.528;2023-05-23T12:17:44;101138.75;;;13.05
76381;BMP280;65202;52.520;10.528;2023-05-23T12:20:12;101142.06;;;13.04
76381;BMP280;65202;52.520;10.528;2023-05-23T12:22:40;101146.44;;;13.08
76381;BMP280;65202;52.520;10.528;2023-05-23T12:25:08;101141.69;;;12.95
76381;BMP280;65202;52.520;10.528;2023-05-23T12:27:40;101146.56;;;13.11
76381;BMP280;65202;52.520;10.528;2023-05-23T12:30:14;101157.97;;;12.84
76381;BMP280;65202;52.520;10.528;2023-05-23T12:32:44;101149.53;;;13.02
76381;BMP280;65202;52.520;10.528;2023-05-23T12:35:13;101160.47;;;13.03
76381;BMP280;65202;52.520;10.528;2023-05-23T12:37:45;101161.22;;;13.00
76381;BMP280;65202;52.520;10.528;2023-05-23T12:40:16;101152.84;;;13.01
76381;BMP280;65202;52.520;10.528;2023-05-23T12:42:55;101156.63;;;13.11
76381;BMP280;65202;52.520;10.528;2023-05-23T12:45:31;101147.22;;;13.27
76381;BMP280;65202;52.520;10.528;2023-05-23T12:48:00;101158.34;;;13.12
76381;BMP280;65202;52.520;10.528;2023-05-23T12:50:28;101152.19;;;13.25
76381;BMP280;65202;52.520;10.528;2023-05-23T12:52:57;101166.19;;;13.61
76381;BMP280;65202;52.520;10.528;2023-05-23T12:55:24;101168.25;;;13.49
76381;BMP280;65202;52.520;10.528;2023-05-23T12:57:51;101155.84;;;13.76
76381;BMP280;65202;52.520;10.528;2023-05-23T13:00:20;101165.97;;;13.77
76381;BMP280;65202;52.520;10.528;2023-05-23T13:02:47;101159.00;;;13.70
76381;BMP280;65202;52.520;10.528;2023-05-23T13:05:16;101163.50;;;14.00
76381;BMP280;65202;52.520;10.528;2023-05-23T13:07:43;101161.97;;;14.74
76381;BMP280;65202;52.520;10.528;2023-05-23T13:10:10;101159.09;;;15.12
76381;BMP280;65202;52.520;10.528;2023-05-23T13:12:37;101168.84;;;15.03
76381;BMP280;65202;52.520;10.528;2023-05-23T13:15:05;101165.78;;;14.86
76381;BMP280;65202;52.520;10.528;2023-05-23T13:17:32;101152.53;;;14.44
76381;BMP280;65202;52.520;10.528;2023-05-23T13:20:00;101167.19;;;14.55
76381;BMP280;65202;52.520;10.528;2023-05-23T13:22:27;101168.47;;;14.67
76381;BMP280;65202;52.520;10.528;2023-05-23T13:24:55;101166.06;;;15.20
76381;BMP280;65202;52.520;10.528;2023-05-23T13:27:22;101165.84;;;14.88
76381;BMP280;65202;52.520;10.528;2023-05-23T13:29:49;101171.31;;;14.76
76381;BMP280;65202;52.520;10.528;2023-05-23T13:32:17;101170.94;;;14.66
76381;BMP280;65202;52.520;10.528;2023-05-23T13:34:44;101174.44;;;14.69
76381;BMP280;65202;52.520;10.528;2023-05-23T13:37:11;101181.00;;;14.64
76381;BMP280;65202;52.520;10.528;2023-05-23T13:39:39;101177.63;;;15.13
76381;BMP280;65202;52.520;10.528;2023-05-23T13:42:06;101188.63;;;14.91
76381;BMP280;65202;52.520;10.528;2023-05-23T13:44:34;101184.56;;;14.71
76381;BMP280;65202;52.520;10.528;2023-05-23T13:47:11;101186.69;;;15.09
76381;BMP280;65202;52.520;10.528;2023-05-23T13:49:42;101191.31;;;14.95
76381;BMP280;65202;52.520;10.528;2023-05-23T13:52:11;101185.47;;;15.21
76381;BMP280;65202;52.520;10.528;2023-05-23T13:54:38;101196.97;;;15.13
76381;BMP280;65202;52.520;10.528;2023-05-23T13:57:07;101192.31;;;14.75
76381;BMP280;65202;52.520;10.528;2023-05-23T13:59:34;101211.31;;;14.67
76381;BMP280;65202;52.520;10.528;2023-05-23T14:02:01;101201.72;;;14.57
76381;BMP280;65202;52.520;10.528;2023-05-23T14:04:29;101201.91;;;14.85
76381;BMP280;65202;52.520;10.528;2023-05-23T14:06:56;101199.97;;;15.03
76381;BMP280;65202;52.520;10.528;2023-05-23T14:09:23;101199.13;;;14.78
76381;BMP280;65202;52.520;10.528;2023-05-23T14:11:50;101208.78;;;14.91
76381;BMP280;65202;52.520;10.528;2023-05-23T14:14:18;101200.03;;;15.05
76381;BMP280;65202;52.520;10.528;2023-05-23T14:16:45;101218.69;;;15.33